LCI weather

Laconia Municipal Airport
Laconia, New Hampshire, United States

Public forecast

Using degrees Fahrenheit for public forecast. Weather courtesy of forecast.io.

Current aviation weather report (METAR) for Laconia Municipal Airport

Report is more than 6 hours old.

Retrieved 2019/10/18 00:56 UTC (7 hours ago):

KLCI 180056Z AUTO 28012KT 10SM BKN024 OVC030 08/04 A2923 RMK AO2 SLP898 T00780044

Closest aviation forecast (TAF) to Laconia Municipal Airport

Closest forecast is Concord Municipal Airport, 22.5 nm (41.7 km) S. Retrieved 2019/10/18 06:24 UTC (2 hours ago):

TAF KCON 180521Z 1806/1906 30011KT P6SM BKN035 FM181500 30013G25KT P6SM BKN035 FM190200 31006G17KT P6SM SCT200